createdAt,value
2018-09-14T00:01:49.510Z,14.40
2018-09-14T00:04:19.602Z,14.40
2018-09-14T00:06:48.201Z,14.40
2018-09-14T00:09:19.077Z,14.30
2018-09-14T00:11:50.564Z,14.30
2018-09-14T00:14:20.458Z,14.30
2018-09-14T00:16:50.737Z,14.20
2018-09-14T00:19:20.535Z,14.20
2018-09-14T00:21:50.885Z,14.20
2018-09-14T00:24:20.333Z,14.20
2018-09-14T00:26:50.071Z,14.20
2018-09-14T00:29:19.081Z,14.20
2018-09-14T00:31:47.398Z,14.10
2018-09-14T00:34:15.870Z,13.90
2018-09-14T00:36:45.631Z,13.90
2018-09-14T00:39:13.854Z,13.90
2018-09-14T00:41:42.163Z,13.90
2018-09-14T00:44:10.756Z,13.90
2018-09-14T00:46:38.989Z,13.90
2018-09-14T00:49:07.357Z,13.90
2018-09-14T00:51:35.627Z,13.90
2018-09-14T00:54:03.954Z,13.90
2018-09-14T00:56:32.196Z,13.90
2018-09-14T00:59:00.438Z,13.80
2018-09-14T01:01:28.815Z,13.80
2018-09-14T01:03:57.072Z,13.70
2018-09-14T01:06:25.364Z,13.70
2018-09-14T01:08:53.611Z,13.60
2018-09-14T01:11:21.882Z,13.60
2018-09-14T01:13:50.426Z,13.60
2018-09-14T01:16:18.660Z,13.60
2018-09-14T01:18:48.760Z,13.60
2018-09-14T01:21:17.329Z,13.60
2018-09-14T01:23:45.699Z,13.60
2018-09-14T01:26:14.000Z,13.60
2018-09-14T01:28:42.512Z,13.70
2018-09-14T01:31:10.786Z,13.70
2018-09-14T01:33:39.041Z,13.60
2018-09-14T01:36:12.068Z,13.60
2018-09-14T01:38:44.373Z,13.60
2018-09-14T01:41:13.144Z,13.60
2018-09-14T01:43:41.445Z,13.60
2018-09-14T01:46:09.715Z,13.60
2018-09-14T01:48:38.003Z,13.60
2018-09-14T01:51:06.261Z,13.60
2018-09-14T01:53:34.543Z,13.60
2018-09-14T01:56:02.805Z,13.50
2018-09-14T01:58:31.046Z,13.50
2018-09-14T02:00:59.276Z,13.40
2018-09-14T02:03:28.778Z,13.40
2018-09-14T02:05:57.005Z,13.40
2018-09-14T02:08:25.249Z,13.40
2018-09-14T02:10:53.485Z,13.40
2018-09-14T02:13:21.731Z,13.40
2018-09-14T02:15:50.003Z,13.40
2018-09-14T02:18:18.235Z,13.30
2018-09-14T02:20:46.494Z,13.30
2018-09-14T02:23:14.790Z,13.30
2018-09-14T02:25:43.200Z,13.30
2018-09-14T02:28:11.394Z,13.30
2018-09-14T02:30:39.715Z,13.20
2018-09-14T02:33:08.421Z,13.10
2018-09-14T02:35:36.658Z,13.20
2018-09-14T02:38:04.923Z,13.20
2018-09-14T02:40:33.190Z,13.20
2018-09-14T02:43:01.436Z,13.30
2018-09-14T02:45:29.738Z,13.30
2018-09-14T02:47:58.292Z,13.30
2018-09-14T02:50:26.553Z,13.30
2018-09-14T02:52:54.838Z,13.30
2018-09-14T02:55:23.103Z,13.30
2018-09-14T02:57:51.370Z,13.30
2018-09-14T03:00:19.725Z,13.30
2018-09-14T03:02:48.102Z,13.30
2018-09-14T03:05:16.597Z,13.30
2018-09-14T03:07:44.845Z,13.30
2018-09-14T03:10:13.135Z,13.30
2018-09-14T03:12:42.899Z,13.30
2018-09-14T03:15:11.172Z,13.30
2018-09-14T03:17:39.434Z,13.20
2018-09-14T03:20:07.763Z,13.20
2018-09-14T03:22:36.017Z,13.20
2018-09-14T03:25:04.267Z,13.20
2018-09-14T03:27:33.099Z,13.20
2018-09-14T03:30:01.346Z,13.10
2018-09-14T03:32:29.661Z,13.10
2018-09-14T03:34:57.918Z,13.20
2018-09-14T03:37:26.200Z,13.20
2018-09-14T03:39:54.513Z,13.20
2018-09-14T03:42:23.111Z,13.10
2018-09-14T03:44:51.435Z,13.10
2018-09-14T03:47:19.691Z,13.10
2018-09-14T03:49:47.950Z,13.10
2018-09-14T03:52:16.871Z,13.10
2018-09-14T03:54:45.201Z,13.00
2018-09-14T03:57:13.531Z,13.10
2018-09-14T03:59:42.261Z,13.10
2018-09-14T04:02:10.509Z,13.10
2018-09-14T04:04:38.779Z,13.10
2018-09-14T04:07:08.071Z,13.10
2018-09-14T04:09:36.882Z,13.10
2018-09-14T04:12:05.132Z,13.10
2018-09-14T04:14:33.438Z,13.10
2018-09-14T04:17:01.714Z,13.10
2018-09-14T04:19:29.997Z,13.10
2018-09-14T04:21:58.323Z,13.00
2018-09-14T04:24:26.593Z,13.00
2018-09-14T04:26:54.853Z,13.00
2018-09-14T04:29:23.113Z,13.00
2018-09-14T04:31:51.371Z,13.00
2018-09-14T04:34:19.671Z,13.00
2018-09-14T04:36:47.922Z,12.90
2018-09-14T04:39:16.218Z,12.80
2018-09-14T04:41:44.476Z,12.80
2018-09-14T04:44:12.731Z,12.80
2018-09-14T04:46:40.995Z,12.80
2018-09-14T04:49:09.315Z,12.80
2018-09-14T04:51:39.556Z,12.80
2018-09-14T04:54:09.232Z,12.80
2018-09-14T04:56:38.446Z,12.80
2018-09-14T04:59:15.364Z,12.80
2018-09-14T05:01:46.339Z,12.80
2018-09-14T05:04:42.817Z,12.80
2018-09-14T05:07:19.352Z,12.80
2018-09-14T05:12:37.494Z,12.70
2018-09-14T05:15:17.830Z,12.70
2018-09-14T05:17:52.623Z,12.70
2018-09-14T05:20:22.475Z,12.70
2018-09-14T05:22:51.342Z,12.70
2018-09-14T05:25:20.477Z,12.70
2018-09-14T05:27:49.391Z,12.70
2018-09-14T05:30:17.966Z,12.70
2018-09-14T05:32:46.237Z,12.80
2018-09-14T05:35:14.505Z,12.80
2018-09-14T05:37:43.297Z,12.90
2018-09-14T05:40:11.577Z,12.90
2018-09-14T05:42:39.839Z,12.90
2018-09-14T05:45:08.129Z,13.00
2018-09-14T05:47:36.423Z,13.00
2018-09-14T05:50:04.658Z,12.90
2018-09-14T05:52:32.918Z,12.90
2018-09-14T05:55:01.204Z,12.90
2018-09-14T05:57:30.061Z,13.00
2018-09-14T06:00:01.050Z,13.10
2018-09-14T06:02:30.155Z,13.00
2018-09-14T06:04:58.411Z,13.00
2018-09-14T06:07:26.941Z,13.10
2018-09-14T06:09:55.197Z,13.10
2018-09-14T06:12:23.474Z,13.10
2018-09-14T06:14:51.766Z,13.20
2018-09-14T06:17:20.065Z,13.20
2018-09-14T06:19:50.644Z,13.30
2018-09-14T06:22:22.602Z,13.30
2018-09-14T06:24:52.388Z,13.40
2018-09-14T06:27:31.168Z,13.40
2018-09-14T06:30:00.194Z,13.50
2018-09-14T06:32:29.789Z,13.60
2018-09-14T06:34:58.159Z,13.70
2018-09-14T06:37:26.403Z,13.80
2018-09-14T06:39:54.773Z,13.90
2018-09-14T06:42:23.703Z,14.10
2018-09-14T06:44:52.180Z,14.10
2018-09-14T06:47:20.408Z,14.10
2018-09-14T06:49:49.065Z,14.10
2018-09-14T06:52:17.336Z,14.20
2018-09-14T06:54:45.610Z,14.00
2018-09-14T06:57:14.303Z,14.00
2018-09-14T06:59:43.261Z,14.10
2018-09-14T07:04:50.739Z,14.20
2018-09-14T07:07:19.907Z,14.20
2018-09-14T07:09:48.699Z,14.20
2018-09-14T07:12:16.969Z,14.20
2018-09-14T07:14:45.234Z,14.30
2018-09-14T07:17:13.481Z,14.30
2018-09-14T07:19:41.850Z,14.40
2018-09-14T07:22:13.812Z,14.40
2018-09-14T07:24:42.216Z,14.40
2018-09-14T07:27:10.797Z,14.50
2018-09-14T07:29:39.961Z,14.60
2018-09-14T07:32:08.265Z,14.70
2018-09-14T07:34:36.566Z,14.70
2018-09-14T07:37:04.868Z,14.80
2018-09-14T07:39:33.168Z,14.80
2018-09-14T07:42:01.482Z,14.90
2018-09-14T07:44:29.782Z,14.90
2018-09-14T07:46:58.089Z,14.90
2018-09-14T07:49:26.367Z,15.00
2018-09-14T07:51:54.654Z,15.10
2018-09-14T07:54:22.923Z,15.10
2018-09-14T07:56:51.168Z,15.10
2018-09-14T07:59:19.466Z,15.30
2018-09-14T08:01:47.733Z,15.30
2018-09-14T08:04:16.043Z,15.40
2018-09-14T08:06:44.795Z,15.40
2018-09-14T08:09:14.042Z,15.50
2018-09-14T08:11:42.704Z,15.60
2018-09-14T08:14:11.738Z,15.70
2018-09-14T08:16:45.871Z,15.70
2018-09-14T08:19:14.443Z,15.80
2018-09-14T08:21:42.777Z,15.90
2018-09-14T08:24:10.998Z,16.00
2018-09-14T08:26:39.334Z,16.10
2018-09-14T08:29:08.231Z,16.20
2018-09-14T08:34:29.138Z,16.20
2018-09-14T08:36:59.415Z,16.20
2018-09-14T08:39:27.705Z,16.20
2018-09-14T08:41:56.015Z,16.30
2018-09-14T08:44:24.311Z,16.40
2018-09-14T08:46:53.457Z,16.40
2018-09-14T08:49:21.747Z,16.40
2018-09-14T08:51:50.027Z,16.50
2018-09-14T08:54:24.902Z,16.50
2018-09-14T08:56:54.220Z,16.60
2018-09-14T08:59:23.443Z,16.60
2018-09-14T09:01:51.735Z,16.70
2018-09-14T09:04:20.583Z,16.70
2018-09-14T09:06:49.902Z,16.80
2018-09-14T09:09:18.547Z,16.80
2018-09-14T09:11:46.752Z,16.90
2018-09-14T09:14:14.986Z,16.90
2018-09-14T09:16:43.344Z,17.00
2018-09-14T09:19:13.159Z,17.10
2018-09-14T09:21:41.372Z,17.10
2018-09-14T09:24:09.776Z,17.10
2018-09-14T09:26:39.929Z,17.20
2018-09-14T09:29:19.278Z,17.30
2018-09-14T09:31:48.080Z,17.30
2018-09-14T09:34:18.097Z,17.30
2018-09-14T09:36:46.384Z,17.40
2018-09-14T09:39:15.407Z,17.40
2018-09-14T09:41:43.738Z,17.50
2018-09-14T09:44:12.171Z,17.50
2018-09-14T09:46:41.087Z,17.60
2018-09-14T09:49:09.474Z,17.70
2018-09-14T09:51:38.366Z,17.70
2018-09-14T09:54:06.600Z,17.80
2018-09-14T09:56:36.090Z,17.80
2018-09-14T09:59:04.412Z,17.80
2018-09-14T10:01:34.858Z,17.90
2018-09-14T10:04:08.872Z,17.90
2018-09-14T10:06:37.310Z,18.00
2018-09-14T10:09:08.114Z,18.00
2018-09-14T10:11:37.638Z,18.00
2018-09-14T10:14:08.758Z,18.10
2018-09-14T10:16:40.575Z,18.20
2018-09-14T10:19:09.485Z,18.20
2018-09-14T10:21:41.005Z,18.30
2018-09-14T10:24:09.302Z,18.40
2018-09-14T10:26:37.688Z,18.40
2018-09-14T10:29:06.746Z,18.50
2018-09-14T10:31:35.990Z,18.50
2018-09-14T10:34:04.520Z,18.50
2018-09-14T10:36:34.362Z,18.50
2018-09-14T10:39:04.059Z,18.60
2018-09-14T10:41:33.321Z,18.60
2018-09-14T10:44:04.888Z,18.70
2018-09-14T10:46:34.018Z,18.70
2018-09-14T10:49:04.008Z,18.70
2018-09-14T10:51:33.485Z,18.80
2018-09-14T10:54:02.745Z,18.80
2018-09-14T10:56:34.134Z,18.90
2018-09-14T10:59:02.611Z,18.90
2018-09-14T11:01:31.560Z,18.90
2018-09-14T11:04:04.361Z,18.90
2018-09-14T11:06:33.550Z,18.90
2018-09-14T11:09:06.395Z,19.00
2018-09-14T11:11:37.627Z,19.00
2018-09-14T11:14:07.999Z,19.10
2018-09-14T11:16:38.652Z,19.10
2018-09-14T11:19:08.225Z,19.10
2018-09-14T11:21:37.647Z,19.20
2018-09-14T11:24:12.062Z,19.30
2018-09-14T11:26:40.378Z,19.30
2018-09-14T11:32:28.726Z,19.40
2018-09-14T11:34:58.060Z,19.50
2018-09-14T11:37:27.424Z,19.50
2018-09-14T11:39:57.031Z,19.50
2018-09-14T11:42:26.917Z,19.50
2018-09-14T11:44:55.640Z,19.60
2018-09-14T11:47:24.581Z,19.60
2018-09-14T11:49:53.318Z,19.60
2018-09-14T11:52:22.147Z,19.70
2018-09-14T11:54:50.929Z,19.70
2018-09-14T11:57:19.520Z,19.80
2018-09-14T11:59:48.039Z,19.90
2018-09-14T12:02:16.505Z,20.00
2018-09-14T12:04:45.150Z,20.10
2018-09-14T12:07:13.778Z,20.20
2018-09-14T12:09:42.536Z,20.20
2018-09-14T12:12:11.044Z,20.20
2018-09-14T12:14:39.463Z,20.20
2018-09-14T12:17:07.911Z,20.10
2018-09-14T12:19:36.292Z,20.00
2018-09-14T12:22:04.812Z,19.80
2018-09-14T12:24:33.254Z,19.90
2018-09-14T12:27:02.054Z,19.80
2018-09-14T12:29:30.574Z,19.70
2018-09-14T12:31:59.162Z,19.60
2018-09-14T12:34:27.628Z,19.60
2018-09-14T12:36:56.273Z,19.60
2018-09-14T12:39:25.082Z,19.50
2018-09-14T12:41:54.178Z,19.60
2018-09-14T12:44:22.660Z,19.60
2018-09-14T12:46:51.106Z,19.60
2018-09-14T12:49:19.428Z,19.60
2018-09-14T12:51:47.870Z,19.80
2018-09-14T12:54:16.287Z,19.70
2018-09-14T12:56:46.351Z,19.80
2018-09-14T12:59:15.073Z,19.80
2018-09-14T13:01:43.428Z,19.80
2018-09-14T13:04:11.934Z,19.80
2018-09-14T13:06:42.565Z,19.80
2018-09-14T13:09:12.653Z,19.80
2018-09-14T13:11:41.834Z,19.90
2018-09-14T13:14:10.776Z,20.10
2018-09-14T13:16:40.448Z,20.30
2018-09-14T13:19:09.796Z,20.30
2018-09-14T13:21:39.516Z,20.20
2018-09-14T13:24:08.087Z,20.10
2018-09-14T13:26:37.450Z,20.10
2018-09-14T13:29:06.130Z,20.10
2018-09-14T13:31:34.678Z,20.10
2018-09-14T13:34:03.378Z,20.10
2018-09-14T13:36:31.797Z,20.10
2018-09-14T13:39:00.135Z,20.10
2018-09-14T13:41:30.272Z,20.20
2018-09-14T13:43:58.586Z,20.20
2018-09-14T13:46:26.938Z,20.20
2018-09-14T13:48:55.465Z,20.10
2018-09-14T13:51:23.844Z,20.00
2018-09-14T13:53:53.507Z,20.10
2018-09-14T13:56:22.941Z,20.10
2018-09-14T13:58:51.230Z,20.10
2018-09-14T14:01:23.679Z,20.00
2018-09-14T14:03:52.009Z,20.00
2018-09-14T14:06:20.334Z,20.00
2018-09-14T14:08:48.766Z,20.00
2018-09-14T14:11:17.182Z,20.00
2018-09-14T14:13:45.835Z,20.10
2018-09-14T14:16:14.239Z,20.20
2018-09-14T14:18:49.084Z,20.10
2018-09-14T14:21:17.813Z,20.20
2018-09-14T14:23:46.477Z,20.10
2018-09-14T14:26:15.819Z,20.10
2018-09-14T14:28:44.241Z,20.20
2018-09-14T14:31:12.864Z,20.20
2018-09-14T14:33:42.401Z,20.10
2018-09-14T14:36:11.699Z,20.10
2018-09-14T14:38:40.194Z,20.00
2018-09-14T14:41:09.309Z,20.00
2018-09-14T14:43:39.336Z,20.00
2018-09-14T14:46:07.840Z,20.00
2018-09-14T14:48:36.276Z,20.00
2018-09-14T14:51:05.021Z,20.00
2018-09-14T14:53:33.496Z,20.00
2018-09-14T14:56:02.432Z,19.90
2018-09-14T14:58:30.833Z,19.80
2018-09-14T15:00:59.220Z,19.70
2018-09-14T15:03:27.858Z,19.80
2018-09-14T15:05:56.625Z,19.80
2018-09-14T15:08:24.999Z,19.70
2018-09-14T15:10:54.311Z,19.70
2018-09-14T15:13:22.759Z,19.80
2018-09-14T15:15:51.105Z,20.00
2018-09-14T15:18:22.610Z,19.80
2018-09-14T15:20:51.044Z,19.80
2018-09-14T15:23:19.691Z,19.80
2018-09-14T15:25:48.334Z,19.80
2018-09-14T15:28:18.208Z,19.80
2018-09-14T15:30:47.177Z,19.70
2018-09-14T15:33:23.605Z,19.70
2018-09-14T15:36:01.244Z,19.80
2018-09-14T15:38:32.076Z,19.80
2018-09-14T15:41:01.215Z,19.90
2018-09-14T15:43:30.075Z,20.00
2018-09-14T15:45:59.936Z,19.90
2018-09-14T15:48:28.580Z,19.90
2018-09-14T15:50:57.408Z,19.70
2018-09-14T15:53:29.172Z,19.60
2018-09-14T15:58:36.377Z,19.50
2018-09-14T16:01:05.638Z,19.40
2018-09-14T16:03:35.783Z,19.20
2018-09-14T16:06:04.993Z,18.90
2018-09-14T16:08:34.760Z,18.90
2018-09-14T16:11:04.254Z,19.00
2018-09-14T16:13:34.449Z,18.90
2018-09-14T16:16:05.031Z,18.90
2018-09-14T16:18:34.327Z,18.80
2018-09-14T16:21:03.507Z,18.80
2018-09-14T16:23:32.484Z,18.80
2018-09-14T16:26:01.544Z,18.80
2018-09-14T16:28:30.562Z,18.70
2018-09-14T16:30:59.605Z,18.70
2018-09-14T16:33:28.172Z,18.70
2018-09-14T16:35:57.571Z,18.70
2018-09-14T16:38:26.293Z,18.70
2018-09-14T16:40:54.833Z,18.70
2018-09-14T16:43:23.842Z,18.60
2018-09-14T16:45:52.298Z,18.60
2018-09-14T16:48:20.848Z,18.40
2018-09-14T16:50:49.416Z,18.40
2018-09-14T16:53:17.834Z,18.40
2018-09-14T16:55:46.935Z,18.40
2018-09-14T16:58:15.988Z,18.40
2018-09-14T17:00:44.789Z,18.30
2018-09-14T17:03:13.610Z,18.40
2018-09-14T17:05:44.169Z,18.40
2018-09-14T17:08:12.696Z,18.50
2018-09-14T17:10:41.008Z,18.40
2018-09-14T17:13:09.400Z,18.40
2018-09-14T17:15:37.779Z,18.30
2018-09-14T17:18:06.388Z,18.20
2018-09-14T17:20:34.744Z,18.30
2018-09-14T17:23:03.118Z,18.20
2018-09-14T17:25:31.573Z,18.20
2018-09-14T17:27:59.927Z,18.20
2018-09-14T17:30:28.311Z,18.10
2018-09-14T17:32:56.808Z,18.10
2018-09-14T17:35:25.294Z,18.10
2018-09-14T17:37:53.694Z,18.20
2018-09-14T17:40:22.487Z,18.20
2018-09-14T17:42:51.922Z,18.20
2018-09-14T17:45:20.466Z,18.20
2018-09-14T17:47:48.869Z,18.00
2018-09-14T17:50:17.291Z,18.00
2018-09-14T17:52:46.181Z,18.00
2018-09-14T17:55:15.180Z,17.90
2018-09-14T17:57:45.203Z,17.90
2018-09-14T18:00:14.173Z,17.90
2018-09-14T18:02:43.384Z,17.90
2018-09-14T18:05:12.583Z,17.80
2018-09-14T18:07:41.563Z,17.80
2018-09-14T18:10:11.368Z,17.90
2018-09-14T18:12:40.203Z,17.90
2018-09-14T18:15:09.350Z,18.00
2018-09-14T18:17:38.831Z,18.10
2018-09-14T18:20:08.318Z,18.00
2018-09-14T18:22:37.563Z,17.90
2018-09-14T18:25:06.557Z,18.00
2018-09-14T18:27:35.339Z,18.00
2018-09-14T18:30:04.702Z,18.10
2018-09-14T18:32:34.622Z,18.20
2018-09-14T18:35:03.234Z,18.00
2018-09-14T18:37:31.566Z,18.00
2018-09-14T18:40:00.043Z,18.00
2018-09-14T18:42:28.375Z,18.00
2018-09-14T18:44:56.667Z,18.00
2018-09-14T18:47:25.305Z,18.00
2018-09-14T18:49:53.646Z,18.10
2018-09-14T18:52:22.411Z,18.10
2018-09-14T18:54:50.928Z,18.10
2018-09-14T18:57:20.486Z,18.00
2018-09-14T18:59:49.374Z,17.90
2018-09-14T19:02:18.248Z,17.80
2018-09-14T19:04:46.702Z,17.90
2018-09-14T19:07:28.363Z,17.80
2018-09-14T19:10:10.193Z,17.80
2018-09-14T19:13:04.656Z,17.80
2018-09-14T19:15:42.841Z,17.90
2018-09-14T19:18:13.262Z,18.00
2018-09-14T19:20:42.602Z,18.00
2018-09-14T19:23:11.302Z,18.00
2018-09-14T19:25:40.307Z,18.00
2018-09-14T19:28:10.051Z,17.90
2018-09-14T19:30:39.551Z,17.90
2018-09-14T19:33:10.329Z,17.90
2018-09-14T19:35:42.907Z,18.00
2018-09-14T19:38:13.737Z,17.90
2018-09-14T19:40:49.290Z,18.00
2018-09-14T19:43:19.227Z,18.10
2018-09-14T19:45:50.277Z,18.10
2018-09-14T19:48:19.964Z,18.00
2018-09-14T19:50:49.794Z,18.00
2018-09-14T19:53:18.895Z,17.90
2018-09-14T19:55:47.699Z,17.90
2018-09-14T19:58:20.392Z,17.90
2018-09-14T20:00:51.286Z,17.80
2018-09-14T20:03:21.061Z,17.90
2018-09-14T20:05:50.434Z,17.90
2018-09-14T20:08:19.689Z,17.80
2018-09-14T20:10:50.611Z,17.80
2018-09-14T20:13:22.361Z,17.80
2018-09-14T20:15:51.981Z,17.70
2018-09-14T20:18:21.041Z,17.70
2018-09-14T20:20:51.351Z,17.80
2018-09-14T20:23:21.005Z,17.80
2018-09-14T20:25:49.909Z,17.80
2018-09-14T20:31:19.037Z,17.70
2018-09-14T20:33:47.523Z,17.70
2018-09-14T20:36:15.793Z,17.70
2018-09-14T20:38:44.148Z,17.70
2018-09-14T20:41:12.426Z,17.70
2018-09-14T20:43:40.684Z,17.70
2018-09-14T20:46:08.994Z,17.60
2018-09-14T20:48:37.990Z,17.60
2018-09-14T20:51:06.345Z,17.60
2018-09-14T20:53:34.686Z,17.60
2018-09-14T20:56:02.953Z,17.50
2018-09-14T20:58:31.255Z,17.40
2018-09-14T21:00:59.515Z,17.40
2018-09-14T21:03:27.790Z,17.40
2018-09-14T21:05:56.810Z,17.40
2018-09-14T21:08:25.372Z,17.50
2018-09-14T21:10:53.672Z,17.50
2018-09-14T21:13:21.942Z,17.50
2018-09-14T21:15:50.571Z,17.50
2018-09-14T21:18:21.982Z,17.30
2018-09-14T21:20:52.977Z,17.20
2018-09-14T21:23:22.885Z,17.20
2018-09-14T21:25:53.619Z,17.20
2018-09-14T21:28:23.635Z,17.10
2018-09-14T21:30:54.085Z,17.00
2018-09-14T21:33:25.413Z,17.00
2018-09-14T21:35:54.082Z,17.00
2018-09-14T21:38:24.853Z,17.00
2018-09-14T21:40:55.160Z,17.00
2018-09-14T21:43:25.859Z,17.00
2018-09-14T21:45:56.869Z,17.00
2018-09-14T21:48:27.751Z,17.00
2018-09-14T21:50:58.027Z,16.90
2018-09-14T21:53:26.501Z,16.90
2018-09-14T21:55:57.649Z,16.90
2018-09-14T21:58:30.639Z,16.80
2018-09-14T22:01:05.690Z,16.90
2018-09-14T22:03:34.316Z,16.90
2018-09-14T22:06:02.881Z,16.90
2018-09-14T22:08:32.568Z,16.90
2018-09-14T22:11:01.899Z,16.90
2018-09-14T22:13:30.840Z,16.90
2018-09-14T22:16:00.388Z,16.90
2018-09-14T22:18:31.566Z,16.80
2018-09-14T22:21:03.324Z,16.70
2018-09-14T22:23:31.848Z,16.80
2018-09-14T22:26:00.513Z,16.80
2018-09-14T22:28:28.910Z,16.80
2018-09-14T22:30:57.322Z,16.70
2018-09-14T22:33:25.735Z,16.70
2018-09-14T22:35:54.372Z,16.70
2018-09-14T22:38:22.688Z,16.70
2018-09-14T22:40:51.081Z,16.70
2018-09-14T22:43:19.506Z,16.60
2018-09-14T22:45:48.438Z,16.60
2018-09-14T22:48:16.924Z,16.50
2018-09-14T22:50:45.455Z,16.50
2018-09-14T22:53:13.839Z,16.50
2018-09-14T22:55:43.842Z,16.50
2018-09-14T22:58:12.561Z,16.50
2018-09-14T23:00:48.114Z,16.40
2018-09-14T23:03:18.606Z,16.40
2018-09-14T23:05:46.992Z,16.40
2018-09-14T23:08:15.447Z,16.40
2018-09-14T23:10:50.759Z,16.40
2018-09-14T23:13:19.193Z,16.40
2018-09-14T23:15:52.993Z,16.30
2018-09-14T23:18:21.301Z,16.30
2018-09-14T23:20:49.777Z,16.30
2018-09-14T23:23:18.234Z,16.30
2018-09-14T23:25:48.141Z,16.30
2018-09-14T23:28:16.648Z,16.30
2018-09-14T23:30:45.514Z,16.40
2018-09-14T23:33:17.814Z,16.40
2018-09-14T23:35:46.641Z,16.40
2018-09-14T23:38:15.972Z,16.40
2018-09-14T23:40:44.307Z,16.20
2018-09-14T23:43:13.383Z,16.30
2018-09-14T23:45:41.899Z,16.30
2018-09-14T23:48:13.544Z,16.30
2018-09-14T23:50:42.001Z,16.30
2018-09-14T23:53:10.504Z,16.30
2018-09-14T23:55:38.944Z,16.30
2018-09-14T23:58:07.452Z,16.30
